SBOSBO KWI / OKBK
Speedbird OnlineSpeedbird Online KWI / OKBK

Kuwait International Airport
11:16 39.7°C

Location Kuwait, Kuwait
Latitude: 29.226600646972656
Longitude: 47.96889877319336
Web Airport Website | Wikipedia
Altitude 63 Meter / 206 Feet
Distance 4,637 KM / 2,881 Miles
from London.
Time Zone UTC +3 hours (Asia/Kuwait)
Codes IATA: KWI
ICAO: OKBK
Currency £1 equals KWD 0.35
Runways
RunwayLength (m)Surface
15L3500Asphalt
15R3400Concrete
33L3400Concrete
33R3500Asphalt
Radio
TypeDescriptionFrequency
APPAPP121.3
ATISATIS126.225
GNDGND121.7
TWRTWR118.3
Live ATC
METAR OKBK 060800Z 35010KT 7000 NSC 40/04 Q1010 NOSIG
TAF TAF OKBK 060500Z 0606/0712 32012KT 7000 NSC TEMPO 0618/0703 VRB03KT
Weather As Of 06 Oct 2022 11:16
Description Clear sky
Wind 19 km/h from North (350°)
Cloud Cover 0%
Precipitation Rain: none, Snow: none
Sunrise 05:43
Sunset 17:28
Lounges Pearl Lounge , Departure Terminal
Rotations During the last 90 days there were
47 flights from LHR
47 flights to LHR


© 2017-2022 Speedbird Online